Home > Products > Valid Products > TAF

000
FTUS42 KRAH 281124
TAFFAY
TAF
KFAY 281124Z 2812/2912 25010KT P6SM SCT200
     FM281500 27011G20KT P6SM SCT050 SCT150
     FM281900 28011G20KT P6SM BKN050
     FM290000 33008KT P6SM SCT250=



000
FTUS42 KRAH 281124
TAFRDU
TAF
KRDU 281124Z 2812/2912 26009KT P6SM SCT200
     FM281500 28011G20KT P6SM SCT060 SCT150
     FM290000 33008KT P6SM SCT250=



000
FTUS42 KRAH 281124
TAFRWI
TAF
KRWI 281124Z 2812/2912 26009KT P6SM SCT200
     FM281500 28011G20KT P6SM SCT060 SCT150
     FM290000 33008KT P6SM SCT250=



000
FTUS42 KRAH 281124
TAFGSO
TAF
KGSO 281124Z 2812/2912 26009KT P6SM SCT200
     FM281500 28011G20KT P6SM SCT060 SCT150
     FM290000 33008KT P6SM SCT250=



000
FTUS42 KRAH 281124
TAFFAY
TAF
KFAY 281124Z 2812/2912 25010KT P6SM SCT200
     FM281500 27011G20KT P6SM SCT050 SCT150
     FM281900 28011G20KT P6SM BKN050
     FM290000 33008KT P6SM SCT250=



000
FTUS42 KRAH 281124
TAFINT
TAF
KINT 281124Z 2812/2912 26009KT P6SM SCT200
     FM281500 28011G20KT P6SM SCT060 SCT200
     FM290000 33008KT P6SM SCT250=



000
FTUS42 KRAH 281124
TAFRDU
TAF
KRDU 281124Z 2812/2912 26009KT P6SM SCT200
     FM281500 28011G20KT P6SM SCT060 SCT150
     FM290000 33008KT P6SM SCT250=



000
FTUS42 KRAH 281124
TAFGSO
TAF
KGSO 281124Z 2812/2912 26009KT P6SM SCT200
     FM281500 28011G20KT P6SM SCT060 SCT150
     FM290000 33008KT P6SM SCT250=



000
FTUS42 KRAH 281124
TAFRWI
TAF
KRWI 281124Z 2812/2912 26009KT P6SM SCT200
     FM281500 28011G20KT P6SM SCT060 SCT150
     FM290000 33008KT P6SM SCT250=



000
FTUS42 KRAH 281124
TAFINT
TAF
KINT 281124Z 2812/2912 26009KT P6SM SCT200
     FM281500 28011G20KT P6SM SCT060 SCT200
     FM290000 33008KT P6SM SCT250=



000
FTUS42 KRAH 280846 AAA
TAFRDU
TAF AMD
KRDU 280846Z 2809/2906 24009KT P6SM SCT080 BKN200
     FM281400 28011G20KT P6SM SCT050
     FM282300 34006KT P6SM SCT060=



000
FTUS42 KRAH 280846 AAA
TAFGSO
TAF AMD
KGSO 280846Z 2809/2906 26012KT P6SM SCT150
     FM281400 28011G20KT P6SM SCT050
     FM282300 33007KT P6SM SCT060=



000
FTUS42 KRAH 280846 AAA
TAFGSO
TAF AMD
KGSO 280846Z 2809/2906 26012KT P6SM SCT150
     FM281400 28011G20KT P6SM SCT050
     FM282300 33007KT P6SM SCT060=



000
FTUS42 KRAH 280524
TAFRDU
TAF
KRDU 280524Z 2806/2906 24009KT P6SM SCT080 BKN200
     FM281400 28011G20KT P6SM SCT050
     FM282300 34006KT P6SM SCT060=



000
FTUS42 KRAH 280524
TAFGSO
TAF
KGSO 280524Z 2806/2906 24010KT P6SM VCTS SCT040CB OVC080
      TEMPO 2806/2808 28020G30KT 2SM -TSRA BKN025CB
     FM280900 26006KT P6SM BKN150
     FM281400 28011G20KT P6SM SCT050
     FM282300 33007KT P6SM SCT060=



000
FTUS42 KRAH 280524
TAFINT
TAF
KINT 280524Z 2806/2906 24010KT P6SM SHRA SCT040 OVC080
      TEMPO 2806/2808 28020G30KT 2SM -TSRA BKN025CB
     FM280900 26006KT P6SM BKN150
     FM281400 28011G20KT P6SM SCT050
     FM282300 33007KT P6SM SCT060=



000
FTUS42 KRAH 280524
TAFFAY
TAF
KFAY 280524Z 2806/2906 24012KT P6SM SCT080 BKN150
     FM281400 28011G20KT P6SM SCT050
     FM282300 34006KT P6SM SCT060=



000
FTUS42 KRAH 280524
TAFRWI
TAF
KRWI 280524Z 2806/2906 24009KT P6SM SCT080 BKN200
     FM281400 28011G20KT P6SM SCT050
     FM282300 34006KT P6SM SCT060=



000
FTUS42 KRAH 280524
TAFINT
TAF
KINT 280524Z 2806/2906 24010KT P6SM SHRA SCT040 OVC080
      TEMPO 2806/2808 28020G30KT 2SM -TSRA BKN025CB
     FM280900 26006KT P6SM BKN150
     FM281400 28011G20KT P6SM SCT050
     FM282300 33007KT P6SM SCT060=



000
FTUS42 KRAH 280524
TAFFAY
TAF
KFAY 280524Z 2806/2906 24012KT P6SM SCT080 BKN150
     FM281400 28011G20KT P6SM SCT050
     FM282300 34006KT P6SM SCT060=



000
FTUS42 KRAH 280524
TAFRDU
TAF
KRDU 280524Z 2806/2906 24009KT P6SM SCT080 BKN200
     FM281400 28011G20KT P6SM SCT050
     FM282300 34006KT P6SM SCT060=



000
FTUS42 KRAH 280524
TAFRWI
TAF
KRWI 280524Z 2806/2906 24009KT P6SM SCT080 BKN200
     FM281400 28011G20KT P6SM SCT050
     FM282300 34006KT P6SM SCT060=



000
FTUS42 KRAH 280524
TAFGSO
TAF
KGSO 280524Z 2806/2906 24010KT P6SM VCTS SCT040CB OVC080
      TEMPO 2806/2808 28020G30KT 2SM -TSRA BKN025CB
     FM280900 26006KT P6SM BKN150
     FM281400 28011G20KT P6SM SCT050
     FM282300 33007KT P6SM SCT060=



000
FTUS42 KRAH 280501 AAC
TAFINT
TAF AMD
KINT 280501Z 2805/2824 22009KT P6SM -SHRA SCT060 OVC120
      TEMPO 2805/2807 29015G25KT 3SM -TSRA BR OVC025CB
     FM280900 26006KT P6SM SCT150
     FM281400 28011G20KT P6SM SCT050=



000
FTUS42 KRAH 280501 AAC
TAFINT
TAF AMD
KINT 280501Z 2805/2824 22009KT P6SM -SHRA SCT060 OVC120
      TEMPO 2805/2807 29015G25KT 3SM -TSRA BR OVC025CB
     FM280900 26006KT P6SM SCT150
     FM281400 28011G20KT P6SM SCT050=



000
FTUS42 KRAH 280410 AAB
TAFFAY
TAF AMD
KFAY 280410Z 2804/2824 21010G18KT P6SM SCT060 BKN120
      TEMPO 2805/2807 29015G25KT 5SM -SHRA BR OVC025
     FM280700 23010KT P6SM SCT060 BKN150
     FM281000 25006KT P6SM SCT150
     FM281430 28012G22KT P6SM SCT050=



000
FTUS42 KRAH 280410 AAB
TAFFAY
TAF AMD
KFAY 280410Z 2804/2824 21010G18KT P6SM SCT060 BKN120
      TEMPO 2805/2807 29015G25KT 5SM -SHRA BR OVC025
     FM280700 23010KT P6SM SCT060 BKN150
     FM281000 25006KT P6SM SCT150
     FM281430 28012G22KT P6SM SCT050=



000
FTUS42 KRAH 280352 AAB
TAFGSO
TAF AMD
KGSO 280352Z 2804/2824 22009G22KT P6SM -RA SCT060 OVC120
      TEMPO 2805/2807 29015G30KT 3SM -SHRA BR OVC025
     FM280700 24010KT P6SM SCT060 BKN120
     FM280900 26006KT P6SM SCT150
     FM281400 28012G22KT P6SM SCT050=



000
FTUS42 KRAH 280352 AAB
TAFGSO
TAF AMD
KGSO 280352Z 2804/2824 22009G22KT P6SM -RA SCT060 OVC120
      TEMPO 2805/2807 29015G30KT 3SM -SHRA BR OVC025
     FM280700 24010KT P6SM SCT060 BKN120
     FM280900 26006KT P6SM SCT150
     FM281400 28012G22KT P6SM SCT050=



000
FTUS42 KRAH 280352 AAB
TAFINT
TAF AMD
KINT 280352Z 2804/2824 22009KT P6SM -RA SCT060 OVC120
      TEMPO 2804/2806 29015G25KT 3SM -SHRA BR OVC025
     FM280900 26006KT P6SM SCT150
     FM281400 28011G20KT P6SM SCT050=



000
FTUS42 KRAH 280352 AAB
TAFINT
TAF AMD
KINT 280352Z 2804/2824 22009KT P6SM -RA SCT060 OVC120
      TEMPO 2804/2806 29015G25KT 3SM -SHRA BR OVC025
     FM280900 26006KT P6SM SCT150
     FM281400 28011G20KT P6SM SCT050=



000
FTUS42 KRAH 280157 AAA
TAFRWI
TAF AMD
KRWI 280157Z 2802/2824 20006KT P6SM SCT060 BKN120
      TEMPO 2804/2807 24015G25KT 6SM -SHRA BR OVC030
     FM281000 24006KT P6SM SCT150
     FM281430 27011G20KT P6SM SCT050=



000
FTUS42 KRAH 280155 AAA
TAFFAY
TAF AMD
KFAY 280155Z 2802/2824 21010G18KT P6SM SCT060 BKN120
      TEMPO 2804/2807 29015G25KT 5SM -SHRA BR OVC025
     FM280700 23010KT P6SM SCT060 BKN150
     FM281000 25006KT P6SM SCT150
     FM281430 28012G22KT P6SM SCT050=



000
FTUS42 KRAH 280155 AAA
TAFFAY
TAF AMD
KFAY 280155Z 2802/2824 21010G18KT P6SM SCT060 BKN120
      TEMPO 2804/2807 29015G25KT 5SM -SHRA BR OVC025
     FM280700 23010KT P6SM SCT060 BKN150
     FM281000 25006KT P6SM SCT150
     FM281430 28012G22KT P6SM SCT050=



000
FTUS42 KRAH 280152 CCA
TAFGSO
TAF COR
KGSO 280152Z 2802/2824 22009G22KT P6SM -RA SCT060 OVC120
      TEMPO 2803/2807 29015G30KT 3SM -SHRA BR OVC025
     FM280700 24010KT P6SM SCT060 BKN120
     FM280900 26006KT P6SM SCT150
     FM281400 28012G22KT P6SM SCT050=



000
FTUS42 KRAH 280152 CCA
TAFGSO
TAF COR
KGSO 280152Z 2802/2824 22009G22KT P6SM -RA SCT060 OVC120
      TEMPO 2803/2807 29015G30KT 3SM -SHRA BR OVC025
     FM280700 24010KT P6SM SCT060 BKN120
     FM280900 26006KT P6SM SCT150
     FM281400 28012G22KT P6SM SCT050=



000
FTUS42 KRAH 280152 CCA
TAFINT
TAF COR
KINT 280152Z 2802/2824 22009KT P6SM -RA SCT060 OVC120
      TEMPO 2803/2806 29015G25KT 3SM -SHRA BR OVC025
     FM280900 26006KT P6SM SCT150
     FM281400 28011G20KT P6SM SCT050=



000
FTUS42 KRAH 280152 CCA
TAFINT
TAF COR
KINT 280152Z 2802/2824 22009KT P6SM -RA SCT060 OVC120
      TEMPO 2803/2806 29015G25KT 3SM -SHRA BR OVC025
     FM280900 26006KT P6SM SCT150
     FM281400 28011G20KT P6SM SCT050=



000
FTUS42 KRAH 280151 AAA
TAFRDU
TAF AMD
KRDU 280151Z 2802/2824 22009G19KT P6SM SCT060 BKN120
      TEMPO 2804/2807 29015G25KT 3SM -SHRA BR OVC025
     FM280700 24010KT P6SM SCT060 BKN150
     FM280900 25006KT P6SM SCT150
     FM281430 28011G20KT P6SM SCT050=



000
FTUS42 KRAH 280151 AAA
TAFRDU
TAF AMD
KRDU 280151Z 2802/2824 22009G19KT P6SM SCT060 BKN120
      TEMPO 2804/2807 29015G25KT 3SM -SHRA BR OVC025
     FM280700 24010KT P6SM SCT060 BKN150
     FM280900 25006KT P6SM SCT150
     FM281430 28011G20KT P6SM SCT050=



000
FTUS42 KRAH 280146 AAA
TAFGSO
TAF AMD
KGSO 280146Z 2802/2824 22009G22KT P6SM -RA SCT060 OVC120
      TEMPO 2803/2807 29015G30KT 3SM -SHRA BR OVC025CB
     FM280700 24010KT P6SM SCT060 BKN120
     FM280900 26006KT P6SM SCT150
     FM281400 28012G22KT P6SM SCT050=



000
FTUS42 KRAH 280140 AAA
TAFINT
TAF AMD
KINT 280140Z 2802/2824 22009KT P6SM -RA SCT060 OVC120
      TEMPO 2803/2806 29015G25KT 3SM -SHRA BR OVC025CB
     FM280900 26006KT P6SM SCT150
     FM281400 28011G20KT P6SM SCT050=



000
FTUS42 KRAH 280140 AAA
TAFINT
TAF AMD
KINT 280140Z 2802/2824 22009KT P6SM -RA SCT060 OVC120
      TEMPO 2803/2806 29015G25KT 3SM -SHRA BR OVC025CB
     FM280900 26006KT P6SM SCT150
     FM281400 28011G20KT P6SM SCT050=



000
FTUS42 KRAH 272321
TAFRWI
TAF
KRWI 272321Z 2800/2824 21006KT P6SM SCT060 BKN120
      TEMPO 2802/2805 29015G25KT 5SM -SHRA BR OVC030
     FM281000 24006KT P6SM SCT150
     FM281430 27011G20KT P6SM SCT050=



000
FTUS42 KRAH 272321
TAFRDU
TAF
KRDU 272321Z 2800/2824 22008KT P6SM SCT060 BKN120
      TEMPO 2802/2805 29020G30KT 3SM TSRA BR OVC025CB
     FM280900 25006KT P6SM SCT150
     FM281430 28011G20KT P6SM SCT050=



000
FTUS42 KRAH 272321
TAFINT
TAF
KINT 272321Z 2800/2824 22009KT P6SM -RA SCT060 OVC120
      TEMPO 2801/2804 29020G35KT 3SM TSRA BR OVC025CB
     FM280900 26006KT P6SM SCT150
     FM281400 28011G20KT P6SM SCT050=



000
FTUS42 KRAH 272321
TAFGSO
TAF
KGSO 272321Z 2800/2824 22009KT P6SM -RA SCT060 OVC120
      TEMPO 2801/2804 29020G35KT 3SM TSRA BR OVC025CB
     FM280900 26006KT P6SM SCT150
     FM281400 28012G22KT P6SM SCT050=



000
FTUS42 KRAH 272321
TAFFAY
TAF
KFAY 272321Z 2800/2824 22008KT P6SM SCT060 BKN120
      TEMPO 2802/2805 29020G30KT 4SM TSRA BR OVC025CB
     FM281000 25006KT P6SM SCT150
     FM281430 28012G22KT P6SM SCT050=



000
FTUS42 KRAH 272321
TAFRWI
TAF
KRWI 272321Z 2800/2824 21006KT P6SM SCT060 BKN120
      TEMPO 2802/2805 29015G25KT 5SM -SHRA BR OVC030
     FM281000 24006KT P6SM SCT150
     FM281430 27011G20KT P6SM SCT050=



000
FTUS42 KRAH 272321
TAFFAY
TAF
KFAY 272321Z 2800/2824 22008KT P6SM SCT060 BKN120
      TEMPO 2802/2805 29020G30KT 4SM TSRA BR OVC025CB
     FM281000 25006KT P6SM SCT150
     FM281430 28012G22KT P6SM SCT050=



000
FTUS42 KRAH 272321
TAFGSO
TAF
KGSO 272321Z 2800/2824 22009KT P6SM -RA SCT060 OVC120
      TEMPO 2801/2804 29020G35KT 3SM TSRA BR OVC025CB
     FM280900 26006KT P6SM SCT150
     FM281400 28012G22KT P6SM SCT050=



000
FTUS42 KRAH 272321
TAFINT
TAF
KINT 272321Z 2800/2824 22009KT P6SM -RA SCT060 OVC120
      TEMPO 2801/2804 29020G35KT 3SM TSRA BR OVC025CB
     FM280900 26006KT P6SM SCT150
     FM281400 28011G20KT P6SM SCT050=



000
FTUS42 KRAH 272321
TAFRDU
TAF
KRDU 272321Z 2800/2824 22008KT P6SM SCT060 BKN120
      TEMPO 2802/2805 29020G30KT 3SM TSRA BR OVC025CB
     FM280900 25006KT P6SM SCT150
     FM281430 28011G20KT P6SM SCT050=



000
FTUS42 KRAH 272101 CCA
TAFINT
TAF COR
KINT 272101Z 2721/2818 23010G16KT P6SM SCT050 BKN100 BKN250
     FM272200 24008KT P6SM VCSH SCT050 BKN100 BKN250
      TEMPO 2723/2803 30020G30KT 4SM -TSRA SCT020 BKN035CB OVC080
     FM280700 25006KT P6SM SCT100 BKN250
     FM281400 28012G18KT P6SM SCT050 SCT250=



000
FTUS42 KRAH 272101 CCA
TAFGSO
TAF COR
KGSO 272101Z 2721/2818 23010G16KT P6SM SCT050 BKN100 BKN250
     FM272200 24008KT P6SM VCSH SCT050 BKN100 BKN250
      TEMPO 2723/2803 30020G30KT 4SM -TSRA SCT020 BKN035CB OVC080
     FM280700 25006KT P6SM SCT100 BKN250
     FM281400 28012G18KT P6SM SCT050 SCT250=



000
FTUS42 KRAH 272101 CCA
TAFGSO
TAF COR
KGSO 272101Z 2721/2818 23010G16KT P6SM SCT050 BKN100 BKN250
     FM272200 24008KT P6SM VCSH SCT050 BKN100 BKN250
      TEMPO 2723/2803 30020G30KT 4SM -TSRA SCT020 BKN035CB OVC080
     FM280700 25006KT P6SM SCT100 BKN250
     FM281400 28012G18KT P6SM SCT050 SCT250=



000
FTUS42 KRAH 272101 CCA
TAFINT
TAF COR
KINT 272101Z 2721/2818 23010G16KT P6SM SCT050 BKN100 BKN250
     FM272200 24008KT P6SM VCSH SCT050 BKN100 BKN250
      TEMPO 2723/2803 30020G30KT 4SM -TSRA SCT020 BKN035CB OVC080
     FM280700 25006KT P6SM SCT100 BKN250
     FM281400 28012G18KT P6SM SCT050 SCT250=



000
FTUS42 KRAH 272053 AAA
TAFRDU
TAF AMD
KRDU 272053Z 2721/2818 23011KT P6SM FEW050 BKN120 BKN250
     FM272300 24009KT P6SM VCTS SCT045CB BKN100 BKN200
      TEMPO 2800/2803 29020G30KT 3SM -TSRA FEW025 BKN045CB OVC100
     FM280400 24007KT P6SM SCT080 BKN200
     FM281400 27012G18KT P6SM SCT050 SCT250=



000
FTUS42 KRAH 272053 AAA
TAFRDU
TAF AMD
KRDU 272053Z 2721/2818 23011KT P6SM FEW050 BKN120 BKN250
     FM272300 24009KT P6SM VCTS SCT045CB BKN100 BKN200
      TEMPO 2800/2803 29020G30KT 3SM -TSRA FEW025 BKN045CB OVC100
     FM280400 24007KT P6SM SCT080 BKN200
     FM281400 27012G18KT P6SM SCT050 SCT250=



000
FTUS42 KRAH 272038 AAA
TAFGSO
TAF AMD
KGSO 272038Z 2721/2818 23010G16KT P6SM SCT050 BKN100 BKN250
      TEMPO 2721/2723 29020G30KT 2SM -TSRA FEW025 BKN045CB OVC100
     FM272300 24008KT P6SM VCSH SCT050 BKN100 BKN250
      TEMPO 2803/2806 31020G30KT 4SM -TSRA SCT020 BKN035CB OVC080
     FM280700 25006KT P6SM SCT100 BKN250
     FM281400 28012G18KT P6SM SCT050 SCT250=



000
FTUS42 KRAH 272038 AAA
TAFINT
TAF AMD
KINT 272038Z 2721/2818 23010G16KT P6SM SCT050 BKN100 BKN250
      TEMPO 2721/2723 29020G30KT 2SM -TSRA SCT025 BKN045CB OVC100
     FM272300 24008KT P6SM VCSH SCT050 BKN100 BKN250
      TEMPO 2802/2805 30020G30KT 4SM -TSRA SCT020 BKN035CB OVC080
     FM280700 25006KT P6SM SCT100 BKN250
     FM281400 28012G18KT P6SM SCT050 SCT250=



000
FTUS42 KRAH 272038 AAA
TAFGSO
TAF AMD
KGSO 272038Z 2721/2818 23010G16KT P6SM SCT050 BKN100 BKN250
      TEMPO 2721/2723 29020G30KT 2SM -TSRA FEW025 BKN045CB OVC100
     FM272300 24008KT P6SM VCSH SCT050 BKN100 BKN250
      TEMPO 2803/2806 31020G30KT 4SM -TSRA SCT020 BKN035CB OVC080
     FM280700 25006KT P6SM SCT100 BKN250
     FM281400 28012G18KT P6SM SCT050 SCT250=



000
FTUS42 KRAH 272038 AAA
TAFINT
TAF AMD
KINT 272038Z 2721/2818 23010G16KT P6SM SCT050 BKN100 BKN250
      TEMPO 2721/2723 29020G30KT 2SM -TSRA SCT025 BKN045CB OVC100
     FM272300 24008KT P6SM VCSH SCT050 BKN100 BKN250
      TEMPO 2802/2805 30020G30KT 4SM -TSRA SCT020 BKN035CB OVC080
     FM280700 25006KT P6SM SCT100 BKN250
     FM281400 28012G18KT P6SM SCT050 SCT250=



000
FTUS42 KRAH 271740
TAFFAY
TAF
KFAY 271740Z 2718/2818 VRB04KT P6SM SCT050 SCT100 BKN250
     FM271930 24010KT P6SM SCT050 BKN250
     FM281400 26012G18KT P6SM SCT050 SCT250=



000
FTUS42 KRAH 271740
TAFRDU
TAF
KRDU 271740Z 2718/2818 VRB04KT P6SM FEW020 BKN100 BKN250
     FM272000 24010KT P6SM SCT045 SCT100 BKN200 PROB30 2804/2808
      30015G25KT -SHRA BKN035 OVC080
     FM281400 27012G18KT P6SM SCT050 SCT250=



000
FTUS42 KRAH 271740
TAFGSO
TAF
KGSO 271740Z 2718/2818 23010KT P6SM FEW050 SCT100 BKN250
     FM272100 24008KT P6SM VCSH SCT050 BKN100 BKN250 PROB30
      2803/2806 30020G30KT -TSRA BKN035CB OVC080
     FM280700 25006KT P6SM SCT100 BKN250
     FM281400 28012G18KT P6SM SCT050 SCT250=



000
FTUS42 KRAH 271740
TAFRWI
TAF
KRWI 271740Z 2718/2818 VRB04KT P6SM SCT015 BKN100 BKN250
      TEMPO 2718/2719 6SM -RA BKN015
     FM272000 24010KT P6SM SCT045 SCT100 BKN200 PROB30 2804/2808
      30015G25KT -SHRA BKN035 OVC080
     FM281400 26012G18KT P6SM SCT050 SCT250=



000
FTUS42 KRAH 271740
TAFINT
TAF
KINT 271740Z 2718/2818 23010KT P6SM FEW050 SCT100 BKN250
     FM272000 24008KT P6SM VCSH SCT050 BKN100 BKN250 PROB30
      2803/2806 30020G30KT -TSRA BKN035CB OVC080
     FM280700 25006KT P6SM SCT100 BKN250
     FM281400 28012G18KT P6SM SCT050 SCT250=



000
FTUS42 KRAH 271740
TAFRDU
TAF
KRDU 271740Z 2718/2818 VRB04KT P6SM FEW020 BKN100 BKN250
     FM272000 24010KT P6SM SCT045 SCT100 BKN200 PROB30 2804/2808
      30015G25KT -SHRA BKN035 OVC080
     FM281400 27012G18KT P6SM SCT050 SCT250=



000
FTUS42 KRAH 271740
TAFFAY
TAF
KFAY 271740Z 2718/2818 VRB04KT P6SM SCT050 SCT100 BKN250
     FM271930 24010KT P6SM SCT050 BKN250
     FM281400 26012G18KT P6SM SCT050 SCT250=



000
FTUS42 KRAH 271740
TAFRWI
TAF
KRWI 271740Z 2718/2818 VRB04KT P6SM SCT015 BKN100 BKN250
      TEMPO 2718/2719 6SM -RA BKN015
     FM272000 24010KT P6SM SCT045 SCT100 BKN200 PROB30 2804/2808
      30015G25KT -SHRA BKN035 OVC080
     FM281400 26012G18KT P6SM SCT050 SCT250=



000
FTUS42 KRAH 271740
TAFINT
TAF
KINT 271740Z 2718/2818 23010KT P6SM FEW050 SCT100 BKN250
     FM272000 24008KT P6SM VCSH SCT050 BKN100 BKN250 PROB30
      2803/2806 30020G30KT -TSRA BKN035CB OVC080
     FM280700 25006KT P6SM SCT100 BKN250
     FM281400 28012G18KT P6SM SCT050 SCT250=



000
FTUS42 KRAH 271740
TAFGSO
TAF
KGSO 271740Z 2718/2818 23010KT P6SM FEW050 SCT100 BKN250
     FM272100 24008KT P6SM VCSH SCT050 BKN100 BKN250 PROB30
      2803/2806 30020G30KT -TSRA BKN035CB OVC080
     FM280700 25006KT P6SM SCT100 BKN250
     FM281400 28012G18KT P6SM SCT050 SCT250=



000
FTUS42 KRAH 271646 AAC
TAFRWI
TAF AMD
KRWI 271646Z 2717/2812 VRB04KT 5SM -RA SCT060 BKN100 OVC200
     FM271710 20008KT P6SM SCT060 BKN100=



000
FTUS42 KRAH 271646 AAC
TAFRWI
TAF AMD
KRWI 271646Z 2717/2812 VRB04KT 5SM -RA SCT060 BKN100 OVC200
     FM271710 20008KT P6SM SCT060 BKN100=



000
FTUS42 KRAH 271513 AAC
TAFGSO
TAF AMD
KGSO 271513Z 2715/2812 VRB05KT P6SM VCSH SCT070 BKN100 BKN250
     FM271630 24010KT P6SM SCT070 BKN100 BKN250=



000
FTUS42 KRAH 271513 AAC
TAFGSO
TAF AMD
KGSO 271513Z 2715/2812 VRB05KT P6SM VCSH SCT070 BKN100 BKN250
     FM271630 24010KT P6SM SCT070 BKN100 BKN250=



000
FTUS42 KRAH 271511 AAC
TAFFAY
TAF AMD
KFAY 271511Z 2715/2812 24004KT P6SM VCSH SCT050 BKN100 BKN200
      TEMPO 2715/2716 VRB03KT 3SM -SHRA
     FM271645 24011KT P6SM SCT045 SCT100 BKN200=



000
FTUS42 KRAH 271511 AAC
TAFFAY
TAF AMD
KFAY 271511Z 2715/2812 24004KT P6SM VCSH SCT050 BKN100 BKN200
      TEMPO 2715/2716 VRB03KT 3SM -SHRA
     FM271645 24011KT P6SM SCT045 SCT100 BKN200=



000
FTUS42 KRAH 271507 AAB
TAFRWI
TAF AMD
KRWI 271507Z 2715/2812 VRB04KT P6SM VCTS SCT030CB BKN080 OVC200
      TEMPO 2715/2716 28020G35KT 1SM TSRA SCT015 BKN035CB OVC080
     FM271600 VRB04KT 6SM -RA SCT030 BKN050 BKN100
     FM271630 24011KT P6SM SCT030 SCT080 BKN120=



000
FTUS42 KRAH 271507 AAB
TAFRWI
TAF AMD
KRWI 271507Z 2715/2812 VRB04KT P6SM VCTS SCT030CB BKN080 OVC200
      TEMPO 2715/2716 28020G35KT 1SM TSRA SCT015 BKN035CB OVC080
     FM271600 VRB04KT 6SM -RA SCT030 BKN050 BKN100
     FM271630 24011KT P6SM SCT030 SCT080 BKN120=



000
FTUS42 KRAH 271425 AAB
TAFFAY
TAF AMD
KFAY 271425Z 2714/2812 22006KT P6SM FEW080 BKN250
      TEMPO 2714/2715 28020G35KT
     FM271500 23010G16KT 6SM -SHRA SCT030 BKN080 BKN200
      TEMPO 2715/2716 28015G30KT 2SM -TSRA BKN035CB BKN050 OVC080
     FM271630 24011KT P6SM SCT045 SCT100 BKN200=



000
FTUS42 KRAH 271425 AAB
TAFFAY
TAF AMD
KFAY 271425Z 2714/2812 22006KT P6SM FEW080 BKN250
      TEMPO 2714/2715 28020G35KT
     FM271500 23010G16KT 6SM -SHRA SCT030 BKN080 BKN200
      TEMPO 2715/2716 28015G30KT 2SM -TSRA BKN035CB BKN050 OVC080
     FM271630 24011KT P6SM SCT045 SCT100 BKN200=



000
FTUS42 KRAH 271423 AAC
TAFRDU
TAF AMD
KRDU 271423Z 2714/2812 VRB05KT 6SM -RA VCTS SCT025 BKN035CB OVC100
      TEMPO 2714/2715 4SM -RA
     FM271500 23008KT 6SM -RA SCT035 BKN050 BKN100
     FM271600 24011KT P6SM SCT045 SCT100 BKN200=



000
FTUS42 KRAH 271423 AAC
TAFRDU
TAF AMD
KRDU 271423Z 2714/2812 VRB05KT 6SM -RA VCTS SCT025 BKN035CB OVC100
      TEMPO 2714/2715 4SM -RA
     FM271500 23008KT 6SM -RA SCT035 BKN050 BKN100
     FM271600 24011KT P6SM SCT045 SCT100 BKN200=



000
FTUS42 KRAH 271355 AAB
TAFRDU
TAF AMD
KRDU 271355Z 2714/2812 28015G30KT 3/4SM +TSRA SCT010 BKN035CB
      OVC060
     FM271430 VRB05KT 3SM -RA BR VCTS BKN035CB BKN050 OVC080
     FM271500 24011KT P6SM SCT045 SCT100 BKN200=



000
FTUS42 KRAH 271355 AAB
TAFRDU
TAF AMD
KRDU 271355Z 2714/2812 28015G30KT 3/4SM +TSRA SCT010 BKN035CB
      OVC060
     FM271430 VRB05KT 3SM -RA BR VCTS BKN035CB BKN050 OVC080
     FM271500 24011KT P6SM SCT045 SCT100 BKN200=



000
FTUS42 KRAH 271306 AAB
TAFGSO
TAF AMD
KGSO 271306Z 2713/2812 23011KT P6SM SCT040 BKN100 BKN250
      TEMPO 2713/2714 VRB03KT 6SM -RA SCT030 BKN100 BKN250=



000
FTUS42 KRAH 271306 AAB
TAFGSO
TAF AMD
KGSO 271306Z 2713/2812 23011KT P6SM SCT040 BKN100 BKN250
      TEMPO 2713/2714 VRB03KT 6SM -RA SCT030 BKN100 BKN250=



000
FTUS42 KRAH 271304 AAA
TAFINT
TAF AMD
KINT 271304Z 2713/2812 23011KT P6SM SCT040 BKN100 BKN250
      TEMPO 2713/2714 VRB03KT SCT025=



000
FTUS42 KRAH 271304 AAA
TAFINT
TAF AMD
KINT 271304Z 2713/2812 23011KT P6SM SCT040 BKN100 BKN250
      TEMPO 2713/2714 VRB03KT SCT025=



000
FTUS42 KRAH 271300 CCB
TAFFAY
TAF COR
KFAY 271300Z 2713/2812 22006KT P6SM FEW080 BKN250
     FM271530 23010G16KT P6SM SCT030 BKN080 BKN200
      TEMPO 2716/2717 28015G30KT 1 1/2SM TSRA BKN035CB BKN050 OVC080
     FM271730 24011KT P6SM SCT045 SCT100 BKN200=



000
FTUS42 KRAH 271300 CCB
TAFFAY
TAF COR
KFAY 271300Z 2713/2812 22006KT P6SM FEW080 BKN250
     FM271530 23010G16KT P6SM SCT030 BKN080 BKN200
      TEMPO 2716/2717 28015G30KT 1 1/2SM TSRA BKN035CB BKN050 OVC080
     FM271730 24011KT P6SM SCT045 SCT100 BKN200=



000
FTUS42 KRAH 271259 AAA
TAFRDU
TAF AMD
KRDU 271259Z 2713/2812 22006KT P6SM SCT080 BKN110 BKN250
     FM271330 24006KT P6SM VCTS SCT035CB BKN080 BKN250
      TEMPO 2714/2715 28015G30KT 1 1/2SM TSRA BKN035CB BKN050 OVC080
     FM271600 24011KT P6SM SCT045 SCT100 BKN200=



000
FTUS42 KRAH 271259 AAA
TAFRDU
TAF AMD
KRDU 271259Z 2713/2812 22006KT P6SM SCT080 BKN110 BKN250
     FM271330 24006KT P6SM VCTS SCT035CB BKN080 BKN250
      TEMPO 2714/2715 28015G30KT 1 1/2SM TSRA BKN035CB BKN050 OVC080
     FM271600 24011KT P6SM SCT045 SCT100 BKN200=



000
FTUS42 KRAH 271254 CCA
TAFFAY
TAF COR
KFAY 271254Z 2713/2812 22006KT P6SM FEW080 BKN250
     FM271530 23010G16KT P6SM SCT030 BKN080 BKN200
      TEMPO 2716/2717 28015G30KT 1 1/2SM TSRA BKN035CB BKN050 OVC080
     FM271800 24011KT P6SM SCT045 SCT100 BKN200=



000
FTUS42 KRAH 271254 CCA
TAFFAY
TAF COR
KFAY 271254Z 2713/2812 22006KT P6SM FEW080 BKN250
     FM271530 23010G16KT P6SM SCT030 BKN080 BKN200
      TEMPO 2716/2717 28015G30KT 1 1/2SM TSRA BKN035CB BKN050 OVC080
     FM271800 24011KT P6SM SCT045 SCT100 BKN200=



000
FTUS42 KRAH 271253 AAA
TAFRWI
TAF AMD
KRWI 271253Z 2713/2812 24006KT P6SM FEW010 BKN120 BKN200
     FM271530 23010G16KT P6SM SCT030 BKN080 BKN200
      TEMPO 2716/2717 28015G30KT 1 1/2SM TSRA BKN035CB BKN050 OVC080
     FM271800 24011KT P6SM SCT045 SCT100 BKN200=



000
FTUS42 KRAH 271253 AAA
TAFRWI
TAF AMD
KRWI 271253Z 2713/2812 24006KT P6SM FEW010 BKN120 BKN200
     FM271530 23010G16KT P6SM SCT030 BKN080 BKN200
      TEMPO 2716/2717 28015G30KT 1 1/2SM TSRA BKN035CB BKN050 OVC080
     FM271800 24011KT P6SM SCT045 SCT100 BKN200=



000
FTUS42 KRAH 271252 AAA
TAFFAY
TAF AMD
KFAY 271252Z 2713/2812 22006KT P6SM FEW080 BKN250
     FM271530 23010G16KT P6SM SCT030 BKN080 BKN200
      TEMPO 2716/2717 1 1/2SM TSRA BKN035CB BKN050 OVC080
     FM271800 24011KT P6SM SCT045 SCT100 BKN200=



000
FTUS42 KRAH 271252 AAA
TAFFAY
TAF AMD
KFAY 271252Z 2713/2812 22006KT P6SM FEW080 BKN250
     FM271530 23010G16KT P6SM SCT030 BKN080 BKN200
      TEMPO 2716/2717 1 1/2SM TSRA BKN035CB BKN050 OVC080
     FM271800 24011KT P6SM SCT045 SCT100 BKN200=



000
FTUS42 KRAH 271221 AAA
TAFGSO
TAF AMD
KGSO 271221Z 2712/2812 22006KT P6SM SCT080 BKN200
      TEMPO 2712/2714 28012G25KT 3SM -TSRA BKN030CB
     FM271800 24011G18KT P6SM SCT050 BKN250
     FM280000 22010KT P6SM BKN200=



000
FTUS42 KRAH 271221 AAA
TAFGSO
TAF AMD
KGSO 271221Z 2712/2812 22006KT P6SM SCT080 BKN200
      TEMPO 2712/2714 28012G25KT 3SM -TSRA BKN030CB
     FM271800 24011G18KT P6SM SCT050 BKN250
     FM280000 22010KT P6SM BKN200=



000
FTUS42 KRAH 271129
TAFFAY
TAF
KFAY 271129Z 2712/2812 22006KT P6SM FEW080 BKN250
      TEMPO 2712/2713 2SM BR
     FM271800 24011G18KT P6SM FEW050 BKN250
     FM280000 22010KT P6SM BKN200=



000
FTUS42 KRAH 271129
TAFRDU
TAF
KRDU 271129Z 2712/2812 22006KT P6SM FEW080 BKN250
     FM271800 24011G18KT P6SM FEW050 BKN250
     FM280000 22010KT P6SM BKN200=



000
FTUS42 KRAH 271129
TAFRWI
TAF
KRWI 271129Z 2712/2812 VRB04KT P6SM FEW050 SCT250
      TEMPO 2712/2713 3SM BR
     FM271800 24010G17KT P6SM FEW050 BKN250
     FM280000 22010KT P6SM SCT200=



000
FTUS42 KRAH 271129
TAFGSO
TAF
KGSO 271129Z 2712/2812 22006KT P6SM SCT080 BKN200
      TEMPO 2712/2714 5SM SHRA BKN040
     FM271800 24011G18KT P6SM SCT050 BKN250
     FM280000 22010KT P6SM BKN200=



000
FTUS42 KRAH 271129
TAFINT
TAF
KINT 271129Z 2712/2812 22006KT P6SM SCT080 BKN200
      TEMPO 2712/2714 5SM SHRA BKN040
     FM271800 24011G18KT P6SM SCT050 BKN250
     FM280000 22010KT P6SM BKN200=



000
FTUS42 KRAH 271129
TAFINT
TAF
KINT 271129Z 2712/2812 22006KT P6SM SCT080 BKN200
      TEMPO 2712/2714 5SM SHRA BKN040
     FM271800 24011G18KT P6SM SCT050 BKN250
     FM280000 22010KT P6SM BKN200=



000
FTUS42 KRAH 271129
TAFRWI
TAF
KRWI 271129Z 2712/2812 VRB04KT P6SM FEW050 SCT250
      TEMPO 2712/2713 3SM BR
     FM271800 24010G17KT P6SM FEW050 BKN250
     FM280000 22010KT P6SM SCT200=



000
FTUS42 KRAH 271129
TAFGSO
TAF
KGSO 271129Z 2712/2812 22006KT P6SM SCT080 BKN200
      TEMPO 2712/2714 5SM SHRA BKN040
     FM271800 24011G18KT P6SM SCT050 BKN250
     FM280000 22010KT P6SM BKN200=



000
FTUS42 KRAH 271129
TAFRDU
TAF
KRDU 271129Z 2712/2812 22006KT P6SM FEW080 BKN250
     FM271800 24011G18KT P6SM FEW050 BKN250
     FM280000 22010KT P6SM BKN200=



000
FTUS42 KRAH 271129
TAFFAY
TAF
KFAY 271129Z 2712/2812 22006KT P6SM FEW080 BKN250
      TEMPO 2712/2713 2SM BR
     FM271800 24011G18KT P6SM FEW050 BKN250
     FM280000 22010KT P6SM BKN200=



000
FTUS42 KRAH 271116 AAA
TAFRWI
TAF AMD
KRWI 271116Z 2711/2806 VRB04KT P6SM FEW050 SCT250
      TEMPO 2711/2712 3SM BR
     FM271800 24010G17KT P6SM FEW050 BKN250
     FM280000 22010KT P6SM SCT200=



000
FTUS42 KRAH 271116 AAA
TAFRWI
TAF AMD
KRWI 271116Z 2711/2806 VRB04KT P6SM FEW050 SCT250
      TEMPO 2711/2712 3SM BR
     FM271800 24010G17KT P6SM FEW050 BKN250
     FM280000 22010KT P6SM SCT200=



000
FTUS42 KRAH 271116 AAA
TAFFAY
TAF AMD
KFAY 271116Z 2711/2806 22006KT P6SM FEW080 BKN250
      TEMPO 2711/2712 2SM BR
     FM271800 24011G18KT P6SM FEW050 BKN250
     FM280000 22010KT P6SM BKN200=



000
FTUS42 KRAH 271116 AAA
TAFFAY
TAF AMD
KFAY 271116Z 2711/2806 22006KT P6SM FEW080 BKN250
      TEMPO 2711/2712 2SM BR
     FM271800 24011G18KT P6SM FEW050 BKN250
     FM280000 22010KT P6SM BKN200=



000
FTUS42 KRAH 270846 AAA
TAFRDU
TAF AMD
KRDU 270846Z 2709/2806 22006KT P6SM FEW080 BKN250
     FM271800 24011G18KT P6SM FEW050 BKN250
     FM280000 22010KT P6SM BKN200=



000
FTUS42 KRAH 270846 AAA
TAFGSO
TAF AMD
KGSO 270846Z 2709/2806 22006KT P6SM FEW080 BKN250
     FM271800 24011G18KT P6SM SCT050 BKN250
     FM280000 22010KT P6SM BKN200=



000
FTUS42 KRAH 270522
TAFRDU
TAF
KRDU 270522Z 2706/2806 22006KT P6SM FEW080 BKN250
     FM271800 24011G18KT P6SM FEW050 BKN250
     FM280000 22010KT P6SM BKN200=



000
FTUS42 KRAH 270522
TAFINT
TAF
KINT 270522Z 2706/2806 22006KT P6SM FEW080 BKN250
     FM271800 24011G18KT P6SM SCT050 BKN250
     FM280000 22010KT P6SM BKN200=



000
FTUS42 KRAH 270522
TAFGSO
TAF
KGSO 270522Z 2706/2806 22006KT P6SM FEW080 BKN250
     FM271800 24011G18KT P6SM SCT050 BKN250
     FM280000 22010KT P6SM BKN200=



000
FTUS42 KRAH 270522
TAFFAY
TAF
KFAY 270522Z 2706/2806 22006KT P6SM FEW080 SCT250
     FM271800 24011G18KT P6SM FEW050 BKN250
     FM280000 22010KT P6SM BKN200=



000
FTUS42 KRAH 270522
TAFRWI
TAF
KRWI 270522Z 2706/2806 VRB04KT P6SM FEW050 SCT250
     FM271800 24010G17KT P6SM FEW050 BKN250
     FM280000 22010KT P6SM SCT200=



000
FTUS42 KRAH 270522
TAFGSO
TAF
KGSO 270522Z 2706/2806 22006KT P6SM FEW080 BKN250
     FM271800 24011G18KT P6SM SCT050 BKN250
     FM280000 22010KT P6SM BKN200=



000
FTUS42 KRAH 270522
TAFINT
TAF
KINT 270522Z 2706/2806 22006KT P6SM FEW080 BKN250
     FM271800 24011G18KT P6SM SCT050 BKN250
     FM280000 22010KT P6SM BKN200=



000
FTUS42 KRAH 270522
TAFRDU
TAF
KRDU 270522Z 2706/2806 22006KT P6SM FEW080 BKN250
     FM271800 24011G18KT P6SM FEW050 BKN250
     FM280000 22010KT P6SM BKN200=



000
FTUS42 KRAH 270522
TAFFAY
TAF
KFAY 270522Z 2706/2806 22006KT P6SM FEW080 SCT250
     FM271800 24011G18KT P6SM FEW050 BKN250
     FM280000 22010KT P6SM BKN200=



000
FTUS42 KRAH 270522
TAFRWI
TAF
KRWI 270522Z 2706/2806 VRB04KT P6SM FEW050 SCT250
     FM271800 24010G17KT P6SM FEW050 BKN250
     FM280000 22010KT P6SM SCT200=



000
FTUS42 KRAH 270155 AAA
TAFRDU
TAF AMD
KRDU 270155Z 2702/2724 23005KT P6SM FEW050 SCT250
      TEMPO 2709/2712 VRB02KT 5SM BR
     FM271900 24011G18KT P6SM FEW070 BKN250=



000
FTUS42 KRAH 270155 AAA
TAFGSO
TAF AMD
KGSO 270155Z 2702/2724 22006KT P6SM FEW060 SCT250
     FM271800 24011G18KT P6SM FEW070 BKN250=



000
FTUS42 KRAH 270155 AAA
TAFRDU
TAF AMD
KRDU 270155Z 2702/2724 23005KT P6SM FEW050 SCT250
      TEMPO 2709/2712 VRB02KT 5SM BR
     FM271900 24011G18KT P6SM FEW070 BKN250=



000
FTUS42 KRAH 270155 AAA
TAFGSO
TAF AMD
KGSO 270155Z 2702/2724 22006KT P6SM FEW060 SCT250
     FM271800 24011G18KT P6SM FEW070 BKN250=



000
FTUS42 KRAH 262328
TAFRDU
TAF
KRDU 262328Z 2700/2724 23005KT P6SM FEW050 SCT250
      TEMPO 2709/2712 VRB02KT 5SM BR
     FM271900 24011G18KT P6SM FEW070 BKN250=



000
FTUS42 KRAH 262328
TAFGSO
TAF
KGSO 262328Z 2700/2724 22006KT P6SM FEW060 SCT250
     FM271800 24011G18KT P6SM FEW070 BKN250=



000
FTUS42 KRAH 262328
TAFRWI
TAF
KRWI 262328Z 2700/2724 VRB04KT P6SM FEW050 SCT250
      TEMPO 2707/2711 2SM BR
     FM271800 24010G17KT P6SM FEW050 BKN250=



000
FTUS42 KRAH 262328
TAFINT
TAF
KINT 262328Z 2700/2724 22006KT P6SM FEW060 SCT250
     FM271800 24011G18KT P6SM FEW050 BKN250=



000
FTUS42 KRAH 262328
TAFFAY
TAF
KFAY 262328Z 2700/2724 22006KT P6SM FEW050 SCT250
      TEMPO 2709/2712 VRB03KT 5SM BR
     FM271900 24011G19KT P6SM FEW070 BKN250=



000
FTUS42 KRAH 262328
TAFRDU
TAF
KRDU 262328Z 2700/2724 23005KT P6SM FEW050 SCT250
      TEMPO 2709/2712 VRB02KT 5SM BR
     FM271900 24011G18KT P6SM FEW070 BKN250=



000
FTUS42 KRAH 262328
TAFGSO
TAF
KGSO 262328Z 2700/2724 22006KT P6SM FEW060 SCT250
     FM271800 24011G18KT P6SM FEW070 BKN250=



000
FTUS42 KRAH 262328
TAFINT
TAF
KINT 262328Z 2700/2724 22006KT P6SM FEW060 SCT250
     FM271800 24011G18KT P6SM FEW050 BKN250=



000
FTUS42 KRAH 262328
TAFFAY
TAF
KFAY 262328Z 2700/2724 22006KT P6SM FEW050 SCT250
      TEMPO 2709/2712 VRB03KT 5SM BR
     FM271900 24011G19KT P6SM FEW070 BKN250=



000
FTUS42 KRAH 262328
TAFRWI
TAF
KRWI 262328Z 2700/2724 VRB04KT P6SM FEW050 SCT250
      TEMPO 2707/2711 2SM BR
     FM271800 24010G17KT P6SM FEW050 BKN250=



000
FTUS42 KRAH 262316 AAB
TAFRWI
TAF AMD
KRWI 262316Z 2623/2718 VRB04KT P6SM SCT030 SCT250
      TEMPO 2707/2711 2SM BR
     FM271500 24010KT P6SM FEW050 SCT150=



000
FTUS42 KRAH 262316 AAB
TAFRWI
TAF AMD
KRWI 262316Z 2623/2718 VRB04KT P6SM SCT030 SCT250
      TEMPO 2707/2711 2SM BR
     FM271500 24010KT P6SM FEW050 SCT150=



000
FTUS42 KRAH 262251 AAB
TAFFAY
TAF AMD
KFAY 262251Z 2623/2718 22006KT P6SM SCT250
      TEMPO 2709/2712 VRB03KT 5SM BR
     FM271600 24010KT P6SM FEW050 SCT150=



000
FTUS42 KRAH 262251 AAB
TAFFAY
TAF AMD
KFAY 262251Z 2623/2718 22006KT P6SM SCT250
      TEMPO 2709/2712 VRB03KT 5SM BR
     FM271600 24010KT P6SM FEW050 SCT150=



000
FTUS42 KRAH 262250 AAA
TAFFAY
TAF AMD
KFAY 262250Z 2623/2718 22006KT P6SM SCT250
     FM271600 24010KT P6SM FEW050 SCT150=



000
FTUS42 KRAH 262250 AAA
TAFFAY
TAF AMD
KFAY 262250Z 2623/2718 22006KT P6SM SCT250
     FM271600 24010KT P6SM FEW050 SCT150=



000
FTUS42 KRAH 262208 AAA
TAFGSO
TAF AMD
KGSO 262208Z 2622/2718 22006KT P6SM SCT050 SCT250
     FM271700 24010G17KT P6SM FEW050 SCT150 BKN250=



000
FTUS42 KRAH 262208 AAA
TAFGSO
TAF AMD
KGSO 262208Z 2622/2718 22006KT P6SM SCT050 SCT250
     FM271700 24010G17KT P6SM FEW050 SCT150 BKN250=



000
FTUS42 KRAH 262208 AAA
TAFINT
TAF AMD
KINT 262208Z 2622/2718 22006KT P6SM SCT050 SCT250
     FM271700 24010G17KT P6SM FEW050 SCT150 BKN250=



000
FTUS42 KRAH 262156 AAA
TAFRDU
TAF AMD
KRDU 262156Z 2622/2718 24006KT P6SM SCT050
     FM270000 23005KT P6SM FEW050 SCT250
      TEMPO 2709/2712 VRB02KT 5SM BR
     FM271700 24010KT P6SM SCT050 SCT100=



000
FTUS42 KRAH 262156 AAA
TAFRDU
TAF AMD
KRDU 262156Z 2622/2718 24006KT P6SM SCT050
     FM270000 23005KT P6SM FEW050 SCT250
      TEMPO 2709/2712 VRB02KT 5SM BR
     FM271700 24010KT P6SM SCT050 SCT100=



000
FTUS42 KRAH 262006 AAA
TAFRWI
TAF AMD
KRWI 262006Z 2620/2718 VRB05KT P6SM FEW040 SCT050
     FM270400 VRB04KT P6SM SCT030 SCT250
      TEMPO 2709/2713 4SM BR=



000
FTUS42 KRAH 262006 AAA
TAFRWI
TAF AMD
KRWI 262006Z 2620/2718 VRB05KT P6SM FEW040 SCT050
     FM270400 VRB04KT P6SM SCT030 SCT250
      TEMPO 2709/2713 4SM BR=



000
FTUS42 KRAH 261723
TAFFAY
TAF
KFAY 261723Z 2618/2718 VRB04KT P6SM FEW030 BKN060
     FM270000 21006KT P6SM SCT250=



000
FTUS42 KRAH 261723
TAFGSO
TAF
KGSO 261723Z 2618/2718 25005KT P6SM SCT050 SCT250
     FM271300 24006KT P6SM SCT050 BKN080=



000
FTUS42 KRAH 261723
TAFINT
TAF
KINT 261723Z 2618/2718 25005KT P6SM SCT050 SCT250
     FM271300 24006KT P6SM SCT050 BKN080=



000
FTUS42 KRAH 261723
TAFFAY
TAF
KFAY 261723Z 2618/2718 VRB04KT P6SM FEW030 BKN060
     FM270000 21006KT P6SM SCT250=



000
FTUS42 KRAH 261723
TAFRDU
TAF
KRDU 261723Z 2618/2718 21006KT P6SM SCT025 SCT250
     FM262100 22006KT P6SM BKN035
     FM270300 23005KT P6SM SCT250
     FM271400 23008KT P6SM SCT050 SCT100=



000
FTUS42 KRAH 261723
TAFRWI
TAF
KRWI 261723Z 2618/2718 VRB05KT P6SM SCT030 SCT250
     FM262100 VRB05KT P6SM BKN030
     FM270400 VRB04KT P6SM SCT030 SCT250
      TEMPO 2709/2713 4SM BR=



000
FTUS42 KRAH 261723
TAFRDU
TAF
KRDU 261723Z 2618/2718 21006KT P6SM SCT025 SCT250
     FM262100 22006KT P6SM BKN035
     FM270300 23005KT P6SM SCT250
     FM271400 23008KT P6SM SCT050 SCT100=



000
FTUS42 KRAH 261723
TAFRWI
TAF
KRWI 261723Z 2618/2718 VRB05KT P6SM SCT030 SCT250
     FM262100 VRB05KT P6SM BKN030
     FM270400 VRB04KT P6SM SCT030 SCT250
      TEMPO 2709/2713 4SM BR=



000
FTUS42 KRAH 261723
TAFGSO
TAF
KGSO 261723Z 2618/2718 25005KT P6SM SCT050 SCT250
     FM271300 24006KT P6SM SCT050 BKN080=



000
FTUS42 KRAH 261723
TAFINT
TAF
KINT 261723Z 2618/2718 25005KT P6SM SCT050 SCT250
     FM271300 24006KT P6SM SCT050 BKN080=



000
FTUS42 KRAH 261441 AAB
TAFRDU
TAF AMD
KRDU 261441Z 2615/2712 26005KT P6SM OVC008
     FM261600 25007KT P6SM SCT025 SCT040
     FM270000 23005KT P6SM FEW250=



000
FTUS42 KRAH 261441 AAB
TAFRDU
TAF AMD
KRDU 261441Z 2615/2712 26005KT P6SM OVC008
     FM261600 25007KT P6SM SCT025 SCT040
     FM270000 23005KT P6SM FEW250=



000
FTUS42 KRAH 261306 AAA
TAFFAY
TAF AMD
KFAY 261306Z 2613/2712 VRB03KT P6SM SCT005 BKN015
      TEMPO 2613/2614 4SM BR OVC003
     FM261430 25005KT P6SM BKN025
     FM261600 25007KT P6SM SCT025 SCT040
     FM270000 23005KT P6SM FEW250=



000
FTUS42 KRAH 261306 AAA
TAFRWI
TAF AMD
KRWI 261306Z 2613/2712 VRB02KT P6SM SCT005 BKN015
      TEMPO 2613/2614 5SM BR BKN004
     FM261430 25005KT P6SM BKN025
     FM261600 25007KT P6SM SCT025 SCT040
     FM270000 23005KT P6SM FEW250=



000
FTUS42 KRAH 261306 AAA
TAFFAY
TAF AMD
KFAY 261306Z 2613/2712 VRB03KT P6SM SCT005 BKN015
      TEMPO 2613/2614 4SM BR OVC003
     FM261430 25005KT P6SM BKN025
     FM261600 25007KT P6SM SCT025 SCT040
     FM270000 23005KT P6SM FEW250=



000
FTUS42 KRAH 261306 AAA
TAFRWI
TAF AMD
KRWI 261306Z 2613/2712 VRB02KT P6SM SCT005 BKN015
      TEMPO 2613/2614 5SM BR BKN004
     FM261430 25005KT P6SM BKN025
     FM261600 25007KT P6SM SCT025 SCT040
     FM270000 23005KT P6SM FEW250=



000
FTUS42 KRAH 261305 AAA
TAFRDU
TAF AMD
KRDU 261305Z 2613/2712 VRB03KT P6SM FEW005 BKN015
      TEMPO 2613/2614 4SM BR OVC005
     FM261430 25005KT P6SM BKN025
     FM261600 25007KT P6SM SCT025 SCT040
     FM270000 23005KT P6SM FEW250=



000
FTUS42 KRAH 261305 AAA
TAFRDU
TAF AMD
KRDU 261305Z 2613/2712 VRB03KT P6SM FEW005 BKN015
      TEMPO 2613/2614 4SM BR OVC005
     FM261430 25005KT P6SM BKN025
     FM261600 25007KT P6SM SCT025 SCT040
     FM270000 23005KT P6SM FEW250=



000
FTUS42 KRAH 261125
TAFRDU
TAF
KRDU 261125Z 2612/2712 VRB03KT 3SM BR SCT003 BKN015
      TEMPO 2612/2613 1/2SM FG OVC002
     FM261430 25005KT P6SM BKN025
     FM261600 25007KT P6SM SCT025 SCT040
     FM270000 23005KT P6SM FEW250=



000
FTUS42 KRAH 261125
TAFINT
TAF
KINT 261125Z 2612/2712 VRB03KT P6SM SCT005 BKN015
      TEMPO 2612/2613 1SM BR OVC003
     FM261430 25005KT P6SM BKN025
     FM261600 25007KT P6SM SCT025 SCT040
     FM270000 23005KT P6SM FEW250=



000
FTUS42 KRAH 261125
TAFFAY
TAF
KFAY 261125Z 2612/2712 VRB03KT 2SM BR SCT005 BKN015
      TEMPO 2612/2613 1/2SM FG OVC002
     FM261430 25005KT P6SM BKN025
     FM261600 25007KT P6SM SCT025 SCT040
     FM270000 23005KT P6SM FEW250=



000
FTUS42 KRAH 261125
TAFRWI
TAF
KRWI 261125Z 2612/2712 VRB02KT 3SM BR SCT005 BKN015
      TEMPO 2612/2613 1SM BR OVC002
     FM261430 25005KT P6SM BKN025
     FM261600 25007KT P6SM SCT025 SCT040
     FM270000 23005KT P6SM FEW250=



000
FTUS42 KRAH 261125
TAFGSO
TAF
KGSO 261125Z 2612/2712 VRB03KT 3SM BR SCT005 BKN015
      TEMPO 2612/2613 1SM BR OVC003
     FM261430 25005KT P6SM BKN025
     FM261600 25007KT P6SM SCT025 SCT040
     FM270000 23005KT P6SM FEW250=



000
FTUS42 KRAH 261125
TAFFAY
TAF
KFAY 261125Z 2612/2712 VRB03KT 2SM BR SCT005 BKN015
      TEMPO 2612/2613 1/2SM FG OVC002
     FM261430 25005KT P6SM BKN025
     FM261600 25007KT P6SM SCT025 SCT040
     FM270000 23005KT P6SM FEW250=



000
FTUS42 KRAH 261125
TAFINT
TAF
KINT 261125Z 2612/2712 VRB03KT P6SM SCT005 BKN015
      TEMPO 2612/2613 1SM BR OVC003
     FM261430 25005KT P6SM BKN025
     FM261600 25007KT P6SM SCT025 SCT040
     FM270000 23005KT P6SM FEW250=



000
FTUS42 KRAH 261125
TAFRWI
TAF
KRWI 261125Z 2612/2712 VRB02KT 3SM BR SCT005 BKN015
      TEMPO 2612/2613 1SM BR OVC002
     FM261430 25005KT P6SM BKN025
     FM261600 25007KT P6SM SCT025 SCT040
     FM270000 23005KT P6SM FEW250=



000
FTUS42 KRAH 261125
TAFGSO
TAF
KGSO 261125Z 2612/2712 VRB03KT 3SM BR SCT005 BKN015
      TEMPO 2612/2613 1SM BR OVC003
     FM261430 25005KT P6SM BKN025
     FM261600 25007KT P6SM SCT025 SCT040
     FM270000 23005KT P6SM FEW250=



000
FTUS42 KRAH 261125
TAFRDU
TAF
KRDU 261125Z 2612/2712 VRB03KT 3SM BR SCT003 BKN015
      TEMPO 2612/2613 1/2SM FG OVC002
     FM261430 25005KT P6SM BKN025
     FM261600 25007KT P6SM SCT025 SCT040
     FM270000 23005KT P6SM FEW250=



000
FTUS42 KRAH 261105 AAB
TAFGSO
TAF AMD
KGSO 261105Z 2611/2706 VRB03KT 3SM BR SCT005 BKN015
      TEMPO 2611/2613 1SM BR OVC003
     FM261400 25005KT P6SM BKN025
     FM261600 25007KT P6SM SCT025 SCT040
     FM270000 23005KT P6SM FEW250=



000
FTUS42 KRAH 261105 AAB
TAFGSO
TAF AMD
KGSO 261105Z 2611/2706 VRB03KT 3SM BR SCT005 BKN015
      TEMPO 2611/2613 1SM BR OVC003
     FM261400 25005KT P6SM BKN025
     FM261600 25007KT P6SM SCT025 SCT040
     FM270000 23005KT P6SM FEW250=



000
FTUS42 KRAH 261055 AAC
TAFRDU
TAF AMD
KRDU 261055Z 2611/2706 VRB03KT 3SM BR SCT003 BKN015
      TEMPO 2611/2613 1/2SM FG OVC002
     FM261400 25005KT P6SM BKN025
     FM261600 25007KT P6SM SCT025 SCT040
     FM270000 23005KT P6SM FEW250=



000
FTUS42 KRAH 261055 AAC
TAFRDU
TAF AMD
KRDU 261055Z 2611/2706 VRB03KT 3SM BR SCT003 BKN015
      TEMPO 2611/2613 1/2SM FG OVC002
     FM261400 25005KT P6SM BKN025
     FM261600 25007KT P6SM SCT025 SCT040
     FM270000 23005KT P6SM FEW250=



000
FTUS42 KRAH 261049 AAB
TAFRWI
TAF AMD
KRWI 261049Z 2611/2706 VRB02KT 2SM BR SCT005 BKN015
      TEMPO 2611/2613 1/2SM FG OVC002
     FM261400 25005KT P6SM BKN025
     FM261600 25007KT P6SM SCT025 SCT040
     FM270000 23005KT P6SM FEW250=



000
FTUS42 KRAH 260904 AAA
TAFGSO
TAF AMD
KGSO 260904Z 2609/2706 VRB05KT P6SM SCT025 SCT080
     FM261000 VRB03KT P6SM SCT005 BKN015
      TEMPO 2610/2613 3SM BR OVC005
     FM261400 25005KT P6SM BKN025
     FM261600 25007KT P6SM SCT025 SCT040
     FM270000 23005KT P6SM FEW250=



000
FTUS42 KRAH 260904 AAA
TAFGSO
TAF AMD
KGSO 260904Z 2609/2706 VRB05KT P6SM SCT025 SCT080
     FM261000 VRB03KT P6SM SCT005 BKN015
      TEMPO 2610/2613 3SM BR OVC005
     FM261400 25005KT P6SM BKN025
     FM261600 25007KT P6SM SCT025 SCT040
     FM270000 23005KT P6SM FEW250=



000
FTUS42 KRAH 260903 AAB
TAFRDU
TAF AMD
KRDU 260903Z 2609/2706 VRB03KT P6SM SCT003 BKN015
      TEMPO 2609/2613 3SM BR OVC003
     FM261400 25005KT P6SM BKN025
     FM261600 25007KT P6SM SCT025 SCT040
     FM270000 23005KT P6SM FEW250=



000
FTUS42 KRAH 260903 AAB
TAFRDU
TAF AMD
KRDU 260903Z 2609/2706 VRB03KT P6SM SCT003 BKN015
      TEMPO 2609/2613 3SM BR OVC003
     FM261400 25005KT P6SM BKN025
     FM261600 25007KT P6SM SCT025 SCT040
     FM270000 23005KT P6SM FEW250=



000
FTUS42 KRAH 260838 AAB
TAFFAY
TAF AMD
KFAY 260838Z 2609/2706 VRB03KT 2SM BR SCT005 BKN015
      TEMPO 2609/2612 1/2SM FG OVC002
     FM261400 25005KT P6SM BKN025
     FM261600 25007KT P6SM SCT025 SCT040
     FM270000 23005KT P6SM FEW250=



000
FTUS42 KRAH 260800 AAA
TAFRDU
TAF AMD
KRDU 260800Z 2608/2706 VRB05KT P6SM SCT025 SCT080
     FM261000 VRB03KT P6SM SCT005 BKN015
      TEMPO 2610/2613 3SM BR OVC005
     FM261400 25005KT P6SM BKN025
     FM261600 25007KT P6SM SCT025 SCT040
     FM270000 23005KT P6SM FEW250=



000
FTUS42 KRAH 260800 AAA
TAFRDU
TAF AMD
KRDU 260800Z 2608/2706 VRB05KT P6SM SCT025 SCT080
     FM261000 VRB03KT P6SM SCT005 BKN015
      TEMPO 2610/2613 3SM BR OVC005
     FM261400 25005KT P6SM BKN025
     FM261600 25007KT P6SM SCT025 SCT040
     FM270000 23005KT P6SM FEW250=



000
FTUS42 KRAH 260759 AAA
TAFINT
TAF AMD
KINT 260759Z 2608/2706 VRB03KT P6SM SCT005 BKN015
      TEMPO 2609/2613 3SM BR OVC005
     FM261400 25005KT P6SM BKN025
     FM261600 25007KT P6SM SCT025 SCT040
     FM270000 23005KT P6SM FEW250=



000
FTUS42 KRAH 260759 AAA
TAFINT
TAF AMD
KINT 260759Z 2608/2706 VRB03KT P6SM SCT005 BKN015
      TEMPO 2609/2613 3SM BR OVC005
     FM261400 25005KT P6SM BKN025
     FM261600 25007KT P6SM SCT025 SCT040
     FM270000 23005KT P6SM FEW250=



000
FTUS42 KRAH 260735 AAA
TAFFAY
TAF AMD
KFAY 260735Z 2608/2706 VRB03KT 5SM BR SCT005 BKN015
      TEMPO 2608/2612 1SM BR OVC005
     FM261400 25005KT P6SM BKN025
     FM261600 25007KT P6SM SCT025 SCT040
     FM270000 23005KT P6SM FEW250=



000
FTUS42 KRAH 260735 AAA
TAFFAY
TAF AMD
KFAY 260735Z 2608/2706 VRB03KT 5SM BR SCT005 BKN015
      TEMPO 2608/2612 1SM BR OVC005
     FM261400 25005KT P6SM BKN025
     FM261600 25007KT P6SM SCT025 SCT040
     FM270000 23005KT P6SM FEW250=



000
FTUS42 KRAH 260549 AAA
TAFRWI
TAF AMD
KRWI 260549Z 2606/2706 VRB02KT 2SM BR SCT005 BKN015
      TEMPO 2607/2610 1/2SM FG OVC002
     FM261400 25005KT P6SM BKN025
     FM261600 25007KT P6SM SCT025 SCT040
     FM270000 23005KT P6SM FEW250=



000
FTUS42 KRAH 260549 AAA
TAFRWI
TAF AMD
KRWI 260549Z 2606/2706 VRB02KT 2SM BR SCT005 BKN015
      TEMPO 2607/2610 1/2SM FG OVC002
     FM261400 25005KT P6SM BKN025
     FM261600 25007KT P6SM SCT025 SCT040
     FM270000 23005KT P6SM FEW250=



000
FTUS42 KRAH 260528
TAFGSO
TAF
KGSO 260528Z 2606/2706 VRB05KT P6SM SCT025 SCT080
     FM260900 VRB03KT P6SM SCT005 BKN015
      TEMPO 2609/2613 3SM BR OVC005
     FM261400 25005KT P6SM BKN025
     FM261600 25007KT P6SM SCT025 SCT040
     FM270000 23005KT P6SM FEW250=



000
FTUS42 KRAH 260528
TAFFAY
TAF
KFAY 260528Z 2606/2706 VRB05KT P6SM SCT025 SCT080
     FM260900 VRB03KT 3SM BR SCT005 BKN015
      TEMPO 2609/2613 1SM BR OVC005
     FM261400 25005KT P6SM BKN025
     FM261600 25007KT P6SM SCT025 SCT040
     FM270000 23005KT P6SM FEW250=



000
FTUS42 KRAH 260528
TAFRWI
TAF
KRWI 260528Z 2606/2706 VRB05KT P6SM SCT025 SCT080
     FM260900 VRB03KT 3SM BR SCT005 BKN015
      TEMPO 2609/2613 1SM BR OVC005
     FM261400 25005KT P6SM BKN025
     FM261600 25007KT P6SM SCT025 SCT040
     FM270000 23005KT P6SM FEW250=



000
FTUS42 KRAH 260528
TAFRDU
TAF
KRDU 260528Z 2606/2706 VRB05KT P6SM SCT025 SCT080
     FM260800 VRB03KT P6SM SCT005 BKN015
      TEMPO 2609/2613 3SM BR OVC005
     FM261400 25005KT P6SM BKN025
     FM261600 25007KT P6SM SCT025 SCT040
     FM270000 23005KT P6SM FEW250=



000
FTUS42 KRAH 260528
TAFINT
TAF
KINT 260528Z 2606/2706 VRB05KT P6SM SCT025 SCT080
     FM260900 VRB03KT P6SM SCT005 BKN015
      TEMPO 2609/2613 3SM BR OVC005
     FM261400 25005KT P6SM BKN025
     FM261600 25007KT P6SM SCT025 SCT040
     FM270000 23005KT P6SM FEW250=



000
FTUS42 KRAH 260528
TAFRWI
TAF
KRWI 260528Z 2606/2706 VRB05KT P6SM SCT025 SCT080
     FM260900 VRB03KT 3SM BR SCT005 BKN015
      TEMPO 2609/2613 1SM BR OVC005
     FM261400 25005KT P6SM BKN025
     FM261600 25007KT P6SM SCT025 SCT040
     FM270000 23005KT P6SM FEW250=



000
FTUS42 KRAH 260528
TAFRDU
TAF
KRDU 260528Z 2606/2706 VRB05KT P6SM SCT025 SCT080
     FM260800 VRB03KT P6SM SCT005 BKN015
      TEMPO 2609/2613 3SM BR OVC005
     FM261400 25005KT P6SM BKN025
     FM261600 25007KT P6SM SCT025 SCT040
     FM270000 23005KT P6SM FEW250=



000
FTUS42 KRAH 260528
TAFINT
TAF
KINT 260528Z 2606/2706 VRB05KT P6SM SCT025 SCT080
     FM260900 VRB03KT P6SM SCT005 BKN015
      TEMPO 2609/2613 3SM BR OVC005
     FM261400 25005KT P6SM BKN025
     FM261600 25007KT P6SM SCT025 SCT040
     FM270000 23005KT P6SM FEW250=



000
FTUS42 KRAH 260528
TAFFAY
TAF
KFAY 260528Z 2606/2706 VRB05KT P6SM SCT025 SCT080
     FM260900 VRB03KT 3SM BR SCT005 BKN015
      TEMPO 2609/2613 1SM BR OVC005
     FM261400 25005KT P6SM BKN025
     FM261600 25007KT P6SM SCT025 SCT040
     FM270000 23005KT P6SM FEW250=



000
FTUS42 KRAH 260528
TAFGSO
TAF
KGSO 260528Z 2606/2706 VRB05KT P6SM SCT025 SCT080
     FM260900 VRB03KT P6SM SCT005 BKN015
      TEMPO 2609/2613 3SM BR OVC005
     FM261400 25005KT P6SM BKN025
     FM261600 25007KT P6SM SCT025 SCT040
     FM270000 23005KT P6SM FEW250=



000
FTUS42 KRAH 260246 AAB
TAFFAY
TAF AMD
KFAY 260246Z 2603/2624 06005KT P6SM FEW025 OVC035
      TEMPO 2603/2606 BKN025
     FM260600 VRB03KT 5SM BR BKN020
      TEMPO 2610/2614 3SM BR OVC010
     FM261600 24008KT P6SM FEW020 SCT035=



000
FTUS42 KRAH 260246 AAB
TAFFAY
TAF AMD
KFAY 260246Z 2603/2624 06005KT P6SM FEW025 OVC035
      TEMPO 2603/2606 BKN025
     FM260600 VRB03KT 5SM BR BKN020
      TEMPO 2610/2614 3SM BR OVC010
     FM261600 24008KT P6SM FEW020 SCT035=



000
FTUS42 KRAH 260205 AAA
TAFFAY
TAF AMD
KFAY 260205Z 2602/2624 06005KT P6SM FEW025 OVC035
      TEMPO 2602/2606 BKN025
     FM260600 VRB03KT 5SM BR BKN012 OVC020
      TEMPO 2610/2614 3SM BR OVC005
     FM261600 24008KT P6SM FEW020 SCT035=



000
FTUS42 KRAH 260205 AAA
TAFFAY
TAF AMD
KFAY 260205Z 2602/2624 06005KT P6SM FEW025 OVC035
      TEMPO 2602/2606 BKN025
     FM260600 VRB03KT 5SM BR BKN012 OVC020
      TEMPO 2610/2614 3SM BR OVC005
     FM261600 24008KT P6SM FEW020 SCT035=



000
FTUS42 KRAH 260153 AAA
TAFRDU
TAF AMD
KRDU 260153Z 2602/2624 VRB03KT P6SM FEW090 SCT250
     FM260800 VRB03KT 5SM BR SCT015
      TEMPO 2610/2614 3SM BR BKN010
     FM261600 24006KT P6SM FEW020 SCT035=



000
FTUS42 KRAH 260153 AAA
TAFRDU
TAF AMD
KRDU 260153Z 2602/2624 VRB03KT P6SM FEW090 SCT250
     FM260800 VRB03KT 5SM BR SCT015
      TEMPO 2610/2614 3SM BR BKN010
     FM261600 24006KT P6SM FEW020 SCT035=



000
FTUS42 KRAH 260152 AAA
TAFGSO
TAF AMD
KGSO 260152Z 2602/2624 VRB05KT P6SM FEW080 SCT250
     FM260800 VRB03KT 5SM BR BKN007 OVC015
      TEMPO 2609/2613 3SM BR OVC005
     FM261400 25005KT P6SM BKN025
     FM261600 25007KT P6SM SCT025 BKN040=



000
FTUS42 KRAH 260152 AAA
TAFGSO
TAF AMD
KGSO 260152Z 2602/2624 VRB05KT P6SM FEW080 SCT250
     FM260800 VRB03KT 5SM BR BKN007 OVC015
      TEMPO 2609/2613 3SM BR OVC005
     FM261400 25005KT P6SM BKN025
     FM261600 25007KT P6SM SCT025 BKN040=



000
FTUS42 KRAH 252338
TAFGSO
TAF
KGSO 252338Z 2600/2624 VRB05KT P6SM FEW035 SCT100
     FM260800 VRB03KT 5SM BR BKN007 OVC015
      TEMPO 2609/2613 3SM BR OVC005
     FM261400 25005KT P6SM BKN025
     FM261600 25007KT P6SM SCT025 BKN040=



000
FTUS42 KRAH 252338
TAFINT
TAF
KINT 252338Z 2600/2624 VRB05KT P6SM FEW040 SCT080
     FM260800 VRB03KT 5SM BR BKN007 OVC015
      TEMPO 2609/2613 3SM BR OVC005
     FM261400 25005KT P6SM BKN025
     FM261600 25007KT P6SM SCT025 BKN040=



000
FTUS42 KRAH 252338
TAFRDU
TAF
KRDU 252338Z 2600/2624 VRB05KT P6SM FEW060 SCT100
     FM260800 VRB03KT 5SM BR SCT015
      TEMPO 2610/2614 3SM BR BKN010
     FM261600 24006KT P6SM FEW020 SCT035=



000
FTUS42 KRAH 252338
TAFFAY
TAF
KFAY 252338Z 2600/2624 06005KT P6SM FEW035 BKN040 OVC060
      TEMPO 2600/2602 BKN025
     FM260800 VRB03KT 5SM BR SCT015
      TEMPO 2610/2614 3SM BR BKN010
     FM261600 24008KT P6SM FEW020 SCT035=



000
FTUS42 KRAH 252338
TAFRWI
TAF
KRWI 252338Z 2600/2624 VRB05KT P6SM BKN060
     FM260600 00000KT 3SM BR SCT005
      TEMPO 2607/2611 2SM BR BKN005
     FM261400 23004KT P6SM FEW020 SCT035=



000
FTUS42 KRAH 252338
TAFINT
TAF
KINT 252338Z 2600/2624 VRB05KT P6SM FEW040 SCT080
     FM260800 VRB03KT 5SM BR BKN007 OVC015
      TEMPO 2609/2613 3SM BR OVC005
     FM261400 25005KT P6SM BKN025
     FM261600 25007KT P6SM SCT025 BKN040=



000
FTUS42 KRAH 252338
TAFRWI
TAF
KRWI 252338Z 2600/2624 VRB05KT P6SM BKN060
     FM260600 00000KT 3SM BR SCT005
      TEMPO 2607/2611 2SM BR BKN005
     FM261400 23004KT P6SM FEW020 SCT035=



000
FTUS42 KRAH 252338
TAFGSO
TAF
KGSO 252338Z 2600/2624 VRB05KT P6SM FEW035 SCT100
     FM260800 VRB03KT 5SM BR BKN007 OVC015
      TEMPO 2609/2613 3SM BR OVC005
     FM261400 25005KT P6SM BKN025
     FM261600 25007KT P6SM SCT025 BKN040=



000
FTUS42 KRAH 252338
TAFFAY
TAF
KFAY 252338Z 2600/2624 06005KT P6SM FEW035 BKN040 OVC060
      TEMPO 2600/2602 BKN025
     FM260800 VRB03KT 5SM BR SCT015
      TEMPO 2610/2614 3SM BR BKN010
     FM261600 24008KT P6SM FEW020 SCT035=



000
FTUS42 KRAH 252338
TAFRDU
TAF
KRDU 252338Z 2600/2624 VRB05KT P6SM FEW060 SCT100
     FM260800 VRB03KT 5SM BR SCT015
      TEMPO 2610/2614 3SM BR BKN010
     FM261600 24006KT P6SM FEW020 SCT035=



000
FTUS42 KRAH 252213 AAA
TAFFAY
TAF AMD
KFAY 252213Z 2522/2618 06005KT P6SM BKN035 OVC045
      TEMPO 2522/2602 BKN025
     FM260500 VRB05KT P6SM SCT025 BKN035
      TEMPO 2609/2613 3SM BR BKN005=



000
FTUS42 KRAH 252213 AAA
TAFFAY
TAF AMD
KFAY 252213Z 2522/2618 06005KT P6SM BKN035 OVC045
      TEMPO 2522/2602 BKN025
     FM260500 VRB05KT P6SM SCT025 BKN035
      TEMPO 2609/2613 3SM BR BKN005=



000
FTUS42 KRAH 251737
TAFFAY
TAF
KFAY 251737Z 2518/2618 06005KT P6SM SCT035
      TEMPO 2609/2613 3SM BR BKN005=



000
FTUS42 KRAH 251737
TAFINT
TAF
KINT 251737Z 2518/2618 VRB05KT P6SM SCT035
      TEMPO 2609/2613 3SM BR BKN005=



000
FTUS42 KRAH 251737
TAFGSO
TAF
KGSO 251737Z 2518/2618 VRB05KT P6SM BKN028
     FM251900 VRB05KT P6SM SCT035
      TEMPO 2609/2613 3SM BR BKN005=



000
FTUS42 KRAH 251737
TAFRWI
TAF
KRWI 251737Z 2518/2618 VRB05KT P6SM SCT035
      TEMPO 2609/2613 3SM BR BKN005=



000
FTUS42 KRAH 251737
TAFRDU
TAF
KRDU 251737Z 2518/2618 VRB05KT P6SM SCT035
      TEMPO 2609/2613 3SM BR BKN005=



000
FTUS42 KRAH 251737
TAFGSO
TAF
KGSO 251737Z 2518/2618 VRB05KT P6SM BKN028
     FM251900 VRB05KT P6SM SCT035
      TEMPO 2609/2613 3SM BR BKN005=



000
FTUS42 KRAH 251737
TAFRDU
TAF
KRDU 251737Z 2518/2618 VRB05KT P6SM SCT035
      TEMPO 2609/2613 3SM BR BKN005=



000
FTUS42 KRAH 251737
TAFINT
TAF
KINT 251737Z 2518/2618 VRB05KT P6SM SCT035
      TEMPO 2609/2613 3SM BR BKN005=



000
FTUS42 KRAH 251737
TAFRWI
TAF
KRWI 251737Z 2518/2618 VRB05KT P6SM SCT035
      TEMPO 2609/2613 3SM BR BKN005=



000
FTUS42 KRAH 251737
TAFFAY
TAF
KFAY 251737Z 2518/2618 06005KT P6SM SCT035
      TEMPO 2609/2613 3SM BR BKN005=



000
FTUS42 KRAH 251658 AAB
TAFGSO
TAF AMD
KGSO 251658Z 2517/2612 VRB05KT P6SM BKN025
      TEMPO 2517/2519 SCT025
     FM251900 VRB05KT P6SM SCT035 BKN080=



000
FTUS42 KRAH 251658 AAB
TAFGSO
TAF AMD
KGSO 251658Z 2517/2612 VRB05KT P6SM BKN025
      TEMPO 2517/2519 SCT025
     FM251900 VRB05KT P6SM SCT035 BKN080=



000
FTUS42 KRAH 251655 AAB
TAFFAY
TAF AMD
KFAY 251655Z 2517/2612 08008KT P6SM BKN025 BKN080
      TEMPO 2517/2519 SCT035
     FM251900 VRB05KT P6SM SCT035 BKN080=



000
FTUS42 KRAH 251655 AAB
TAFFAY
TAF AMD
KFAY 251655Z 2517/2612 08008KT P6SM BKN025 BKN080
      TEMPO 2517/2519 SCT035
     FM251900 VRB05KT P6SM SCT035 BKN080=



000
FTUS42 KRAH 251653 AAB
TAFRDU
TAF AMD
KRDU 251653Z 2517/2612 08008KT P6SM BKN025 BKN080
      TEMPO 2517/2519 SCT035
     FM251900 VRB05KT P6SM SCT035 BKN080=



000
FTUS42 KRAH 251653 AAB
TAFRDU
TAF AMD
KRDU 251653Z 2517/2612 08008KT P6SM BKN025 BKN080
      TEMPO 2517/2519 SCT035
     FM251900 VRB05KT P6SM SCT035 BKN080=



    US Dept of Commerce
    National Oceanic and Atmospheric Administration
    National Weather Service
    1325 East West Highway
    Silver Spring, MD 20910
    Page Author: NWS Internet Services Team
Disclaimer
Information Quality
Credits
Glossary
Privacy Policy
Freedom of Information Act (FOIA)
About Us
Career Opportunities